Terminal Aerodrome Forecast
Issued by NWS Duluth, MN

Home | Current Version | Previous Version | Text Only | Print | Product List | Glossary On
Versions: 1 2 3 4 5 6 7 8 9 10 11 12 13 14
000
FTUS43 KDLH 232300
TAFDLH
TAF
KDLH 232335Z 2400/2424 23012KT P6SM SCT090
     FM240200 25008KT P6SM SCT100
     FM241600 10007KT P6SM SCT060 BKN100
     FM242100 09007KT 6SM -SHRA OVC050=

USA.gov is the U.S. government's official web portal to all federal, state and local government web resources and services.